sensor_id;sensor_type;location;lat;lon;timestamp;P1;durP1;ratioP1;P2;durP2;ratioP2
39750;SDS011;37579;51.074;17.004;2023-04-01T00:00:31;2.55;;;1.20;;
39750;SDS011;37579;51.074;17.004;2023-04-01T00:02:56;2.15;;;1.55;;
39750;SDS011;37579;51.074;17.004;2023-04-01T00:05:22;3.22;;;1.20;;
39750;SDS011;37579;51.074;17.004;2023-04-01T00:07:49;2.78;;;1.30;;
39750;SDS011;37579;51.074;17.004;2023-04-01T00:10:16;2.50;;;1.23;;
39750;SDS011;37579;51.074;17.004;2023-04-01T00:12:42;2.00;;;1.38;;
39750;SDS011;37579;51.074;17.004;2023-04-01T00:15:09;2.90;;;1.25;;
39750;SDS011;37579;51.074;17.004;2023-04-01T00:17:36;3.08;;;1.38;;
39750;SDS011;37579;51.074;17.004;2023-04-01T00:20:03;2.17;;;1.33;;
39750;SDS011;37579;51.074;17.004;2023-04-01T00:22:29;1.75;;;1.17;;
39750;SDS011;37579;51.074;17.004;2023-04-01T00:24:55;3.22;;;1.25;;
39750;SDS011;37579;51.074;17.004;2023-04-01T00:27:21;3.72;;;1.67;;
39750;SDS011;37579;51.074;17.004;2023-04-01T00:29:46;2.38;;;1.27;;
39750;SDS011;37579;51.074;17.004;2023-04-01T00:32:13;2.35;;;1.38;;
39750;SDS011;37579;51.074;17.004;2023-04-01T00:34:39;3.17;;;1.42;;
39750;SDS011;37579;51.074;17.004;2023-04-01T00:37:06;2.55;;;1.38;;
39750;SDS011;37579;51.074;17.004;2023-04-01T00:39:33;3.65;;;1.65;;
39750;SDS011;37579;51.074;17.004;2023-04-01T00:42:00;2.53;;;1.17;;
39750;SDS011;37579;51.074;17.004;2023-04-01T00:44:29;2.75;;;1.75;;
39750;SDS011;37579;51.074;17.004;2023-04-01T00:46:57;2.28;;;1.50;;
39750;SDS011;37579;51.074;17.004;2023-04-01T00:49:25;2.33;;;1.15;;
39750;SDS011;37579;51.074;17.004;2023-04-01T00:51:55;3.03;;;1.27;;
39750;SDS011;37579;51.074;17.004;2023-04-01T00:54:24;2.75;;;1.42;;
39750;SDS011;37579;51.074;17.004;2023-04-01T00:56:53;1.50;;;0.93;;
39750;SDS011;37579;51.074;17.004;2023-04-01T00:59:25;2.45;;;1.40;;
39750;SDS011;37579;51.074;17.004;2023-04-01T01:01:53;2.78;;;1.20;;
39750;SDS011;37579;51.074;17.004;2023-04-01T01:04:29;2.22;;;1.15;;
39750;SDS011;37579;51.074;17.004;2023-04-01T01:10:08;4.00;;;1.25;;
39750;SDS011;37579;51.074;17.004;2023-04-01T01:15:40;3.03;;;1.40;;
39750;SDS011;37579;51.074;17.004;2023-04-01T01:23:56;2.55;;;1.10;;
39750;SDS011;37579;51.074;17.004;2023-04-01T01:27:16;1.98;;;0.95;;
39750;SDS011;37579;51.074;17.004;2023-04-01T01:36:00;2.33;;;1.08;;
39750;SDS011;37579;51.074;17.004;2023-04-01T01:38:31;2.00;;;1.02;;
39750;SDS011;37579;51.074;17.004;2023-04-01T01:41:02;1.65;;;0.80;;
39750;SDS011;37579;51.074;17.004;2023-04-01T01:43:36;2.28;;;1.15;;
39750;SDS011;37579;51.074;17.004;2023-04-01T01:46:07;2.22;;;1.10;;
39750;SDS011;37579;51.074;17.004;2023-04-01T01:48:37;2.53;;;1.23;;
39750;SDS011;37579;51.074;17.004;2023-04-01T01:51:06;1.77;;;0.82;;
39750;SDS011;37579;51.074;17.004;2023-04-01T01:53:32;2.92;;;1.10;;
39750;SDS011;37579;51.074;17.004;2023-04-01T01:55:58;4.20;;;1.33;;
39750;SDS011;37579;51.074;17.004;2023-04-01T01:58:26;2.05;;;1.00;;
39750;SDS011;37579;51.074;17.004;2023-04-01T02:01:12;1.38;;;0.85;;
39750;SDS011;37579;51.074;17.004;2023-04-01T02:03:50;1.73;;;1.05;;
39750;SDS011;37579;51.074;17.004;2023-04-01T02:06:19;2.35;;;0.90;;
39750;SDS011;37579;51.074;17.004;2023-04-01T02:08:58;1.90;;;1.10;;
39750;SDS011;37579;51.074;17.004;2023-04-01T02:11:30;1.88;;;1.10;;
39750;SDS011;37579;51.074;17.004;2023-04-01T02:14:05;1.83;;;1.02;;
39750;SDS011;37579;51.074;17.004;2023-04-01T02:22:20;2.53;;;1.17;;
39750;SDS011;37579;51.074;17.004;2023-04-01T02:24:50;1.75;;;0.85;;
39750;SDS011;37579;51.074;17.004;2023-04-01T02:27:19;1.73;;;1.13;;
39750;SDS011;37579;51.074;17.004;2023-04-01T02:29:45;1.50;;;0.77;;
39750;SDS011;37579;51.074;17.004;2023-04-01T02:32:12;2.33;;;0.90;;
39750;SDS011;37579;51.074;17.004;2023-04-01T02:34:39;1.70;;;0.80;;
39750;SDS011;37579;51.074;17.004;2023-04-01T02:37:05;1.92;;;0.98;;
39750;SDS011;37579;51.074;17.004;2023-04-01T02:39:32;2.05;;;1.20;;
39750;SDS011;37579;51.074;17.004;2023-04-01T02:41:58;1.65;;;0.70;;
39750;SDS011;37579;51.074;17.004;2023-04-01T02:44:23;2.00;;;1.20;;
39750;SDS011;37579;51.074;17.004;2023-04-01T02:46:49;1.70;;;0.93;;
39750;SDS011;37579;51.074;17.004;2023-04-01T02:49:15;1.55;;;0.98;;
39750;SDS011;37579;51.074;17.004;2023-04-01T02:51:41;1.25;;;0.98;;
39750;SDS011;37579;51.074;17.004;2023-04-01T02:54:08;1.83;;;1.08;;
39750;SDS011;37579;51.074;17.004;2023-04-01T02:56:34;2.58;;;0.80;;
39750;SDS011;37579;51.074;17.004;2023-04-01T02:59:00;3.08;;;1.08;;
39750;SDS011;37579;51.074;17.004;2023-04-01T03:01:26;1.52;;;0.75;;
39750;SDS011;37579;51.074;17.004;2023-04-01T03:03:52;1.48;;;0.65;;
39750;SDS011;37579;51.074;17.004;2023-04-01T03:06:17;1.27;;;0.90;;
39750;SDS011;37579;51.074;17.004;2023-04-01T03:08:44;2.33;;;0.95;;
39750;SDS011;37579;51.074;17.004;2023-04-01T03:11:10;1.73;;;1.05;;
39750;SDS011;37579;51.074;17.004;2023-04-01T03:13:36;1.35;;;0.90;;
39750;SDS011;37579;51.074;17.004;2023-04-01T03:16:02;1.63;;;0.85;;
39750;SDS011;37579;51.074;17.004;2023-04-01T03:18:28;2.03;;;1.00;;
39750;SDS011;37579;51.074;17.004;2023-04-01T03:20:56;1.80;;;1.10;;
39750;SDS011;37579;51.074;17.004;2023-04-01T03:23:22;2.10;;;0.88;;
39750;SDS011;37579;51.074;17.004;2023-04-01T03:25:49;1.40;;;0.80;;
39750;SDS011;37579;51.074;17.004;2023-04-01T03:28:15;2.03;;;0.85;;
39750;SDS011;37579;51.074;17.004;2023-04-01T03:30:41;1.42;;;0.80;;
39750;SDS011;37579;51.074;17.004;2023-04-01T03:33:08;1.73;;;0.90;;
39750;SDS011;37579;51.074;17.004;2023-04-01T03:35:33;1.05;;;0.80;;
39750;SDS011;37579;51.074;17.004;2023-04-01T03:38:01;1.60;;;0.90;;
39750;SDS011;37579;51.074;17.004;2023-04-01T03:40:27;2.00;;;0.95;;
39750;SDS011;37579;51.074;17.004;2023-04-01T03:42:53;1.63;;;1.17;;
39750;SDS011;37579;51.074;17.004;2023-04-01T03:45:21;1.30;;;0.80;;
39750;SDS011;37579;51.074;17.004;2023-04-01T03:47:47;1.85;;;1.00;;
39750;SDS011;37579;51.074;17.004;2023-04-01T03:50:13;1.48;;;0.80;;
39750;SDS011;37579;51.074;17.004;2023-04-01T03:52:39;2.13;;;0.88;;
39750;SDS011;37579;51.074;17.004;2023-04-01T03:55:04;1.15;;;0.80;;
39750;SDS011;37579;51.074;17.004;2023-04-01T03:57:31;0.98;;;0.60;;
39750;SDS011;37579;51.074;17.004;2023-04-01T04:00:02;1.27;;;0.70;;
39750;SDS011;37579;51.074;17.004;2023-04-01T04:02:39;1.60;;;0.80;;
39750;SDS011;37579;51.074;17.004;2023-04-01T04:05:05;2.60;;;1.00;;
39750;SDS011;37579;51.074;17.004;2023-04-01T04:07:33;1.20;;;0.70;;
39750;SDS011;37579;51.074;17.004;2023-04-01T04:10:03;1.85;;;1.00;;
39750;SDS011;37579;51.074;17.004;2023-04-01T04:12:30;1.98;;;0.95;;
39750;SDS011;37579;51.074;17.004;2023-04-01T04:14:55;1.35;;;0.90;;
39750;SDS011;37579;51.074;17.004;2023-04-01T04:17:21;1.30;;;0.73;;
39750;SDS011;37579;51.074;17.004;2023-04-01T04:19:47;0.80;;;0.50;;
39750;SDS011;37579;51.074;17.004;2023-04-01T04:22:14;2.60;;;1.08;;
39750;SDS011;37579;51.074;17.004;2023-04-01T04:24:40;1.70;;;0.77;;
39750;SDS011;37579;51.074;17.004;2023-04-01T04:27:08;1.88;;;0.80;;
39750;SDS011;37579;51.074;17.004;2023-04-01T04:29:41;1.67;;;1.00;;
39750;SDS011;37579;51.074;17.004;2023-04-01T04:32:07;1.42;;;0.70;;
39750;SDS011;37579;51.074;17.004;2023-04-01T04:34:33;1.60;;;0.68;;
39750;SDS011;37579;51.074;17.004;2023-04-01T04:36:59;1.77;;;0.90;;
39750;SDS011;37579;51.074;17.004;2023-04-01T04:39:29;1.02;;;0.57;;
39750;SDS011;37579;51.074;17.004;2023-04-01T04:41:55;1.48;;;0.85;;
39750;SDS011;37579;51.074;17.004;2023-04-01T04:44:21;1.63;;;0.80;;
39750;SDS011;37579;51.074;17.004;2023-04-01T04:46:47;1.27;;;0.80;;
39750;SDS011;37579;51.074;17.004;2023-04-01T04:49:14;1.33;;;0.80;;
39750;SDS011;37579;51.074;17.004;2023-04-01T04:51:40;1.30;;;1.00;;
39750;SDS011;37579;51.074;17.004;2023-04-01T04:54:06;1.08;;;0.63;;
39750;SDS011;37579;51.074;17.004;2023-04-01T04:57:00;1.13;;;0.60;;
39750;SDS011;37579;51.074;17.004;2023-04-01T04:59:29;1.42;;;0.50;;
39750;SDS011;37579;51.074;17.004;2023-04-01T05:02:02;1.15;;;0.73;;
39750;SDS011;37579;51.074;17.004;2023-04-01T05:04:28;0.70;;;0.50;;
39750;SDS011;37579;51.074;17.004;2023-04-01T05:06:54;1.52;;;0.70;;
39750;SDS011;37579;51.074;17.004;2023-04-01T05:09:20;2.13;;;1.08;;
39750;SDS011;37579;51.074;17.004;2023-04-01T05:11:46;1.27;;;0.70;;
39750;SDS011;37579;51.074;17.004;2023-04-01T05:14:13;1.95;;;0.73;;
39750;SDS011;37579;51.074;17.004;2023-04-01T05:16:50;0.85;;;0.60;;
39750;SDS011;37579;51.074;17.004;2023-04-01T05:19:16;3.55;;;0.57;;
39750;SDS011;37579;51.074;17.004;2023-04-01T05:21:42;1.63;;;0.70;;
39750;SDS011;37579;51.074;17.004;2023-04-01T05:24:08;0.77;;;0.57;;
39750;SDS011;37579;51.074;17.004;2023-04-01T05:26:35;1.35;;;0.65;;
39750;SDS011;37579;51.074;17.004;2023-04-01T05:29:02;2.25;;;0.63;;
39750;SDS011;37579;51.074;17.004;2023-04-01T05:31:29;1.85;;;0.60;;
39750;SDS011;37579;51.074;17.004;2023-04-01T05:33:56;1.20;;;0.70;;
39750;SDS011;37579;51.074;17.004;2023-04-01T05:36:22;1.45;;;0.70;;
39750;SDS011;37579;51.074;17.004;2023-04-01T05:38:48;1.25;;;0.65;;
39750;SDS011;37579;51.074;17.004;2023-04-01T05:41:17;1.55;;;0.70;;
39750;SDS011;37579;51.074;17.004;2023-04-01T05:43:44;1.92;;;0.82;;
39750;SDS011;37579;51.074;17.004;2023-04-01T05:46:29;1.17;;;0.63;;
39750;SDS011;37579;51.074;17.004;2023-04-01T05:49:25;0.88;;;0.65;;
39750;SDS011;37579;51.074;17.004;2023-04-01T05:51:51;1.25;;;0.60;;
39750;SDS011;37579;51.074;17.004;2023-04-01T05:54:17;1.88;;;0.70;;
39750;SDS011;37579;51.074;17.004;2023-04-01T05:56:44;0.90;;;0.50;;
39750;SDS011;37579;51.074;17.004;2023-04-01T05:59:10;1.48;;;0.50;;
39750;SDS011;37579;51.074;17.004;2023-04-01T06:01:37;0.80;;;0.38;;
39750;SDS011;37579;51.074;17.004;2023-04-01T06:04:03;1.60;;;0.90;;
39750;SDS011;37579;51.074;17.004;2023-04-01T06:06:29;1.10;;;0.50;;
39750;SDS011;37579;51.074;17.004;2023-04-01T06:09:16;1.65;;;0.47;;
39750;SDS011;37579;51.074;17.004;2023-04-01T06:20:17;2.15;;;0.68;;
39750;SDS011;37579;51.074;17.004;2023-04-01T06:26:05;1.25;;;0.80;;
39750;SDS011;37579;51.074;17.004;2023-04-01T06:34:30;1.20;;;0.70;;
39750;SDS011;37579;51.074;17.004;2023-04-01T06:46:26;0.82;;;0.60;;
39750;SDS011;37579;51.074;17.004;2023-04-01T06:52:40;2.90;;;0.70;;
39750;SDS011;37579;51.074;17.004;2023-04-01T06:55:43;1.23;;;0.55;;
39750;SDS011;37579;51.074;17.004;2023-04-01T07:03:54;0.88;;;0.50;;
39750;SDS011;37579;51.074;17.004;2023-04-01T07:09:16;1.33;;;0.45;;
39750;SDS011;37579;51.074;17.004;2023-04-01T07:12:11;1.52;;;0.45;;
39750;SDS011;37579;51.074;17.004;2023-04-01T07:15:12;2.65;;;0.77;;
39750;SDS011;37579;51.074;17.004;2023-04-01T07:17:43;2.20;;;0.70;;
39750;SDS011;37579;51.074;17.004;2023-04-01T07:20:13;1.98;;;0.60;;
39750;SDS011;37579;51.074;17.004;2023-04-01T07:22:42;4.15;;;0.80;;
39750;SDS011;37579;51.074;17.004;2023-04-01T07:25:35;2.83;;;0.60;;
39750;SDS011;37579;51.074;17.004;2023-04-01T07:28:43;1.02;;;0.40;;
39750;SDS011;37579;51.074;17.004;2023-04-01T07:31:48;1.75;;;0.60;;
39750;SDS011;37579;51.074;17.004;2023-04-01T07:53:30;2.67;;;0.80;;
39750;SDS011;37579;51.074;17.004;2023-04-01T07:58:48;7.00;;;0.70;;
39750;SDS011;37579;51.074;17.004;2023-04-01T08:07:44;6.18;;;0.95;;
39750;SDS011;37579;51.074;17.004;2023-04-01T08:10:51;3.63;;;0.77;;
39750;SDS011;37579;51.074;17.004;2023-04-01T08:14:02;3.05;;;0.52;;
39750;SDS011;37579;51.074;17.004;2023-04-01T08:16:47;11.93;;;1.40;;
39750;SDS011;37579;51.074;17.004;2023-04-01T08:22:23;3.78;;;0.60;;
39750;SDS011;37579;51.074;17.004;2023-04-01T08:24:59;2.83;;;0.60;;
39750;SDS011;37579;51.074;17.004;2023-04-01T08:30:20;1.90;;;0.60;;
39750;SDS011;37579;51.074;17.004;2023-04-01T08:32:59;4.38;;;1.00;;
39750;SDS011;37579;51.074;17.004;2023-04-01T08:38:31;3.63;;;1.10;;
39750;SDS011;37579;51.074;17.004;2023-04-01T09:21:06;5.17;;;2.97;;
39750;SDS011;37579;51.074;17.004;2023-04-01T09:37:34;6.93;;;3.05;;
39750;SDS011;37579;51.074;17.004;2023-04-01T09:40:14;6.00;;;2.72;;
39750;SDS011;37579;51.074;17.004;2023-04-01T09:46:14;5.95;;;2.67;;
39750;SDS011;37579;51.074;17.004;2023-04-01T09:52:16;6.75;;;2.70;;
39750;SDS011;37579;51.074;17.004;2023-04-01T10:08:49;18.98;;;5.43;;
39750;SDS011;37579;51.074;17.004;2023-04-01T10:36:50;9.95;;;3.03;;
39750;SDS011;37579;51.074;17.004;2023-04-01T10:58:15;3.97;;;1.60;;
39750;SDS011;37579;51.074;17.004;2023-04-01T11:13:58;4.03;;;1.50;;
39750;SDS011;37579;51.074;17.004;2023-04-01T11:22:40;8.02;;;1.30;;
39750;SDS011;37579;51.074;17.004;2023-04-01T11:25:24;6.32;;;1.67;;
39750;SDS011;37579;51.074;17.004;2023-04-01T11:34:12;3.13;;;1.38;;
39750;SDS011;37579;51.074;17.004;2023-04-01T11:39:39;4.95;;;1.25;;
39750;SDS011;37579;51.074;17.004;2023-04-01T11:42:51;3.80;;;1.42;;
39750;SDS011;37579;51.074;17.004;2023-04-01T11:51:41;3.33;;;1.40;;
39750;SDS011;37579;51.074;17.004;2023-04-01T12:00:01;4.45;;;1.60;;
39750;SDS011;37579;51.074;17.004;2023-04-01T12:10:50;1.75;;;0.75;;
39750;SDS011;37579;51.074;17.004;2023-04-01T12:27:20;2.15;;;0.90;;
39750;SDS011;37579;51.074;17.004;2023-04-01T12:45:54;2.38;;;0.70;;
39750;SDS011;37579;51.074;17.004;2023-04-01T12:51:21;1.75;;;0.80;;
39750;SDS011;37579;51.074;17.004;2023-04-01T12:56:43;1.58;;;0.82;;
39750;SDS011;37579;51.074;17.004;2023-04-01T13:08:07;3.85;;;0.73;;
39750;SDS011;37579;51.074;17.004;2023-04-01T13:10:43;3.20;;;1.42;;
39750;SDS011;37579;51.074;17.004;2023-04-01T13:13:34;2.25;;;0.70;;
39750;SDS011;37579;51.074;17.004;2023-04-01T13:16:24;2.13;;;0.60;;
39750;SDS011;37579;51.074;17.004;2023-04-01T13:18:56;3.95;;;0.75;;
39750;SDS011;37579;51.074;17.004;2023-04-01T13:27:01;1.60;;;0.80;;
39750;SDS011;37579;51.074;17.004;2023-04-01T13:35:35;4.32;;;0.73;;
39750;SDS011;37579;51.074;17.004;2023-04-01T13:43:48;1.45;;;0.75;;
39750;SDS011;37579;51.074;17.004;2023-04-01T13:52:17;1.50;;;0.60;;
39750;SDS011;37579;51.074;17.004;2023-04-01T14:17:14;3.65;;;0.70;;
39750;SDS011;37579;51.074;17.004;2023-04-01T14:33:28;1.77;;;0.40;;
39750;SDS011;37579;51.074;17.004;2023-04-01T14:39:22;2.63;;;0.70;;
39750;SDS011;37579;51.074;17.004;2023-04-01T14:45:21;1.33;;;0.52;;
39750;SDS011;37579;51.074;17.004;2023-04-01T14:48:07;1.58;;;0.52;;
39750;SDS011;37579;51.074;17.004;2023-04-01T14:50:52;1.92;;;0.70;;
39750;SDS011;37579;51.074;17.004;2023-04-01T14:55:55;3.70;;;0.68;;
39750;SDS011;37579;51.074;17.004;2023-04-01T14:58:23;1.85;;;0.73;;
39750;SDS011;37579;51.074;17.004;2023-04-01T15:12:12;2.35;;;0.70;;
39750;SDS011;37579;51.074;17.004;2023-04-01T15:17:16;3.10;;;0.93;;
39750;SDS011;37579;51.074;17.004;2023-04-01T15:22:44;2.33;;;0.77;;
39750;SDS011;37579;51.074;17.004;2023-04-01T15:25:32;6.50;;;0.85;;
39750;SDS011;37579;51.074;17.004;2023-04-01T15:30:56;5.05;;;0.80;;
39750;SDS011;37579;51.074;17.004;2023-04-01T15:33:32;3.28;;;0.90;;
39750;SDS011;37579;51.074;17.004;2023-04-01T15:36:10;3.90;;;0.70;;
39750;SDS011;37579;51.074;17.004;2023-04-01T15:38:54;3.80;;;0.80;;
39750;SDS011;37579;51.074;17.004;2023-04-01T15:41:38;3.53;;;0.90;;
39750;SDS011;37579;51.074;17.004;2023-04-01T15:44:26;5.63;;;0.90;;
39750;SDS011;37579;51.074;17.004;2023-04-01T16:26:23;2.95;;;1.17;;
39750;SDS011;37579;51.074;17.004;2023-04-01T16:29:09;3.13;;;1.17;;
39750;SDS011;37579;51.074;17.004;2023-04-01T16:34:41;5.97;;;1.40;;
39750;SDS011;37579;51.074;17.004;2023-04-01T16:37:20;4.93;;;1.40;;
39750;SDS011;37579;51.074;17.004;2023-04-01T16:40:10;2.97;;;1.17;;
39750;SDS011;37579;51.074;17.004;2023-04-01T16:42:48;2.65;;;1.05;;
39750;SDS011;37579;51.074;17.004;2023-04-01T16:45:37;4.13;;;1.35;;
39750;SDS011;37579;51.074;17.004;2023-04-01T16:50:44;3.60;;;1.48;;
39750;SDS011;37579;51.074;17.004;2023-04-01T16:53:17;3.72;;;1.25;;
39750;SDS011;37579;51.074;17.004;2023-04-01T16:56:25;5.68;;;1.20;;
39750;SDS011;37579;51.074;17.004;2023-04-01T17:04:34;6.53;;;1.73;;
39750;SDS011;37579;51.074;17.004;2023-04-01T17:15:43;5.40;;;1.60;;
39750;SDS011;37579;51.074;17.004;2023-04-01T17:25:30;3.53;;;1.33;;
39750;SDS011;37579;51.074;17.004;2023-04-01T17:30:18;3.95;;;1.73;;
39750;SDS011;37579;51.074;17.004;2023-04-01T17:39:04;2.92;;;1.23;;
39750;SDS011;37579;51.074;17.004;2023-04-01T17:44:51;4.95;;;2.00;;
39750;SDS011;37579;51.074;17.004;2023-04-01T17:58:07;7.85;;;2.00;;
39750;SDS011;37579;51.074;17.004;2023-04-01T18:11:11;9.63;;;2.67;;
39750;SDS011;37579;51.074;17.004;2023-04-01T18:13:49;5.78;;;1.50;;
39750;SDS011;37579;51.074;17.004;2023-04-01T18:16:39;9.88;;;1.98;;
39750;SDS011;37579;51.074;17.004;2023-04-01T18:19:44;7.43;;;2.20;;
39750;SDS011;37579;51.074;17.004;2023-04-01T18:22:36;11.98;;;2.03;;
39750;SDS011;37579;51.074;17.004;2023-04-01T18:25:39;5.75;;;2.10;;
39750;SDS011;37579;51.074;17.004;2023-04-01T18:31:21;7.03;;;2.30;;
39750;SDS011;37579;51.074;17.004;2023-04-01T18:39:16;6.50;;;2.65;;
39750;SDS011;37579;51.074;17.004;2023-04-01T18:44:45;4.60;;;2.57;;
39750;SDS011;37579;51.074;17.004;2023-04-01T18:52:46;8.57;;;2.53;;
39750;SDS011;37579;51.074;17.004;2023-04-01T18:55:22;8.63;;;2.60;;
39750;SDS011;37579;51.074;17.004;2023-04-01T18:58:06;8.23;;;2.60;;
39750;SDS011;37579;51.074;17.004;2023-04-01T19:00:36;6.70;;;2.63;;
39750;SDS011;37579;51.074;17.004;2023-04-01T19:03:23;6.25;;;2.67;;
39750;SDS011;37579;51.074;17.004;2023-04-01T19:05:56;7.50;;;2.90;;
39750;SDS011;37579;51.074;17.004;2023-04-01T19:08:34;4.47;;;2.40;;
39750;SDS011;37579;51.074;17.004;2023-04-01T19:23:40;5.55;;;2.15;;
39750;SDS011;37579;51.074;17.004;2023-04-01T19:25:43;7.43;;;2.30;;
39750;SDS011;37579;51.074;17.004;2023-04-01T19:28:20;9.45;;;3.05;;
39750;SDS011;37579;51.074;17.004;2023-04-01T19:30:55;6.82;;;2.58;;
39750;SDS011;37579;51.074;17.004;2023-04-01T19:44:31;10.57;;;2.67;;
39750;SDS011;37579;51.074;17.004;2023-04-01T19:50:10;6.45;;;2.55;;
39750;SDS011;37579;51.074;17.004;2023-04-01T19:52:55;5.95;;;2.13;;
39750;SDS011;37579;51.074;17.004;2023-04-01T20:03:05;5.35;;;2.42;;
39750;SDS011;37579;51.074;17.004;2023-04-01T20:17:07;8.35;;;2.75;;
39750;SDS011;37579;51.074;17.004;2023-04-01T20:27:48;5.28;;;2.92;;
39750;SDS011;37579;51.074;17.004;2023-04-01T20:35:35;4.15;;;2.25;;
39750;SDS011;37579;51.074;17.004;2023-04-01T20:40:49;4.47;;;2.55;;
39750;SDS011;37579;51.074;17.004;2023-04-01T20:43:23;4.60;;;2.50;;
39750;SDS011;37579;51.074;17.004;2023-04-01T20:51:37;4.93;;;2.75;;
39750;SDS011;37579;51.074;17.004;2023-04-01T20:54:10;4.85;;;2.60;;
39750;SDS011;37579;51.074;17.004;2023-04-01T20:59:28;6.13;;;2.47;;
39750;SDS011;37579;51.074;17.004;2023-04-01T21:10:50;7.28;;;2.70;;
39750;SDS011;37579;51.074;17.004;2023-04-01T21:13:48;3.95;;;2.28;;
39750;SDS011;37579;51.074;17.004;2023-04-01T21:16:49;4.03;;;2.40;;
39750;SDS011;37579;51.074;17.004;2023-04-01T21:19:54;5.70;;;3.07;;
39750;SDS011;37579;51.074;17.004;2023-04-01T21:28:06;2.92;;;2.40;;
39750;SDS011;37579;51.074;17.004;2023-04-01T21:30:52;6.25;;;2.90;;
39750;SDS011;37579;51.074;17.004;2023-04-01T21:36:30;5.43;;;2.85;;
39750;SDS011;37579;51.074;17.004;2023-04-01T21:53:10;4.32;;;2.70;;
39750;SDS011;37579;51.074;17.004;2023-04-01T21:56:05;4.60;;;2.65;;
39750;SDS011;37579;51.074;17.004;2023-04-01T22:12:35;6.07;;;2.78;;
39750;SDS011;37579;51.074;17.004;2023-04-01T22:17:43;5.03;;;2.72;;
39750;SDS011;37579;51.074;17.004;2023-04-01T22:23:01;5.15;;;3.30;;
39750;SDS011;37579;51.074;17.004;2023-04-01T22:25:41;4.93;;;2.65;;
39750;SDS011;37579;51.074;17.004;2023-04-01T22:28:23;3.92;;;2.72;;
39750;SDS011;37579;51.074;17.004;2023-04-01T22:31:00;4.82;;;2.88;;
39750;SDS011;37579;51.074;17.004;2023-04-01T22:53:26;6.32;;;2.85;;
39750;SDS011;37579;51.074;17.004;2023-04-01T22:55:54;3.90;;;2.63;;
39750;SDS011;37579;51.074;17.004;2023-04-01T22:58:37;3.47;;;3.07;;
39750;SDS011;37579;51.074;17.004;2023-04-01T23:01:10;3.95;;;2.70;;
39750;SDS011;37579;51.074;17.004;2023-04-01T23:03:41;3.40;;;2.45;;
39750;SDS011;37579;51.074;17.004;2023-04-01T23:06:15;3.90;;;2.90;;
39750;SDS011;37579;51.074;17.004;2023-04-01T23:20:02;5.82;;;2.58;;
39750;SDS011;37579;51.074;17.004;2023-04-01T23:35:54;4.90;;;2.80;;
39750;SDS011;37579;51.074;17.004;2023-04-01T23:38:30;3.95;;;2.72;;
39750;SDS011;37579;51.074;17.004;2023-04-01T23:40:57;4.03;;;2.58;;
39750;SDS011;37579;51.074;17.004;2023-04-01T23:43:24;3.22;;;2.42;;
39750;SDS011;37579;51.074;17.004;2023-04-01T23:45:56;3.53;;;2.17;;
39750;SDS011;37579;51.074;17.004;2023-04-01T23:48:44;3.87;;;2.67;;
39750;SDS011;37579;51.074;17.004;2023-04-01T23:51:21;3.42;;;2.70;;
39750;SDS011;37579;51.074;17.004;2023-04-01T23:53:58;3.10;;;2.33;;
39750;SDS011;37579;51.074;17.004;2023-04-01T23:56:39;3.90;;;2.50;;
39750;SDS011;37579;51.074;17.004;2023-04-01T23:59:17;3.20;;;2.40;;
